Time;durP1;ratioP1;P1;durP2;ratioP2;P2;SDS_P1;SDS_P2;PMS_P1;PMS_P2;Temp;Humidity;BMP_temperature;BMP_pressure;BME280_temperature;BME280_humidity;BME280_pressure;Samples;Min_cycle;Max_cycle;Signal;HPM_P1;HPM_P2
2022/07/20 00:02:23;;;;;;;3.30;2.40;;;;;;;28.96;27.35;100328.25;9931455;29;20500;-80
2022/07/20 00:07:26;;;;;;;5.38;2.72;;;;;;;28.88;27.29;100326.69;9930797;29;20201;-80
2022/07/20 00:12:28;;;;;;;5.88;2.72;;;;;;;28.87;26.24;100319.31;9916205;30;20206;-80
2022/07/20 00:17:31;;;;;;;9.35;3.17;;;;;;;29.02;26.41;100324.91;9901024;30;20274;-80
2022/07/20 00:22:33;;;;;;;4.35;3.08;;;;;;;29.20;25.99;100317.69;9915655;30;20250;-80
2022/07/20 00:27:35;;;;;;;6.65;2.50;;;;;;;28.86;26.07;100328.38;9915650;29;20242;-81
2022/07/20 00:32:38;;;;;;;3.13;2.70;;;;;;;28.76;26.19;100312.03;9915398;29;20274;-81
2022/07/20 00:37:42;;;;;;;3.47;2.75;;;;;;;28.76;26.20;100315.72;9921278;29;20229;-80
2022/07/20 00:42:44;;;;;;;5.93;3.00;;;;;;;28.99;25.70;100317.94;9915412;30;20258;-80
2022/07/20 00:47:48;;;;;;;3.55;2.55;;;;;;;29.07;25.34;100307.16;9915965;30;20198;-80
2022/07/20 00:52:50;;;;;;;6.50;2.80;;;;;;;29.18;24.84;100299.22;9914559;30;20244;-80
2022/07/20 00:57:53;;;;;;;3.58;2.70;;;;;;;29.22;24.51;100289.28;9914632;30;20504;-80
2022/07/20 01:02:55;;;;;;;6.43;3.03;;;;;;;29.04;24.91;100290.75;9926078;29;20197;-80
2022/07/20 01:07:57;;;;;;;4.88;3.20;;;;;;;28.98;25.07;100292.44;9936106;29;20219;-80
2022/07/20 01:13:00;;;;;;;2.70;2.50;;;;;;;28.87;25.49;100295.47;9934684;29;20197;-80
2022/07/20 01:18:02;;;;;;;2.92;2.60;;;;;;;28.84;25.10;100294.25;9896867;29;20229;-80
2022/07/20 01:23:04;;;;;;;4.85;2.80;;;;;;;28.72;25.65;100283.28;9905193;29;20234;-81
2022/07/20 01:28:12;;;;;;;7.28;2.80;;;;;;;28.83;25.91;100283.97;9914831;29;20263;-83
2022/07/20 01:33:14;;;;;;;5.45;2.70;;;;;;;28.88;25.45;100274.06;9907191;29;20268;-81
2022/07/20 01:38:16;;;;;;;7.32;3.30;;;;;;;28.59;26.02;100262.84;9913445;29;20696;-81
2022/07/20 01:43:19;;;;;;;7.60;2.83;;;;;;;28.83;25.06;100260.94;9896221;30;20255;-81
2022/07/20 01:48:21;;;;;;;5.18;2.90;;;;;;;28.78;25.74;100264.31;9911107;30;20652;-81
2022/07/20 01:53:23;;;;;;;5.18;2.90;;;;;;;28.52;25.37;100262.09;9909226;30;20205;-81
2022/07/20 01:58:26;;;;;;;3.67;2.42;;;;;;;28.22;26.43;100262.81;9927183;29;20213;-81
2022/07/20 02:03:28;;;;;;;5.28;3.05;;;;;;;28.41;25.54;100261.41;9902571;30;20550;-81
2022/07/20 02:08:30;;;;;;;5.85;2.75;;;;;;;28.37;26.50;100257.72;9892110;30;20225;-81
2022/07/20 02:13:36;;;;;;;4.88;2.47;;;;;;;28.33;25.72;100254.06;9891211;30;20199;-81
2022/07/20 02:18:38;;;;;;;4.57;2.10;;;;;;;28.16;27.87;100267.38;9891179;30;20218;-80
2022/07/20 02:23:41;;;;;;;4.85;2.50;;;;;;;27.99;28.38;100265.44;9922173;29;20600;-81
2022/07/20 02:28:43;;;;;;;3.80;2.47;;;;;;;27.75;29.99;100264.38;9874624;30;20229;-81
2022/07/20 02:33:45;;;;;;;5.45;3.08;;;;;;;27.86;29.19;100265.13;9862340;30;20290;-81
2022/07/20 02:38:48;;;;;;;3.53;3.00;;;;;;;27.86;30.07;100254.44;9874377;30;20561;-81
2022/07/20 02:43:51;;;;;;;3.63;2.60;;;;;;;27.28;30.64;100263.81;9889886;30;20225;-81
2022/07/20 02:48:59;;;;;;;2.92;2.65;;;;;;;27.65;29.52;100248.03;9892063;29;20359;-81
2022/07/20 02:54:01;;;;;;;5.30;2.83;;;;;;;27.03;31.79;100251.63;9894200;30;20201;-81
2022/07/20 02:59:03;;;;;;;4.60;3.22;;;;;;;26.71;32.12;100252.53;9884542;30;20253;-80
2022/07/20 03:04:06;;;;;;;6.07;2.97;;;;;;;26.83;32.62;100254.16;9908302;30;20273;-81
2022/07/20 03:09:08;;;;;;;2.90;2.65;;;;;;;26.68;32.62;100250.50;9918505;29;20250;-80
2022/07/20 03:14:11;;;;;;;4.90;3.30;;;;;;;26.62;32.53;100257.06;9910061;30;20200;-81
2022/07/20 03:19:13;;;;;;;7.55;3.40;;;;;;;26.73;31.71;100255.78;9924851;29;20229;-80
2022/07/20 03:24:15;;;;;;;3.50;2.80;;;;;;;25.94;33.77;100245.66;9911084;30;20492;-80
2022/07/20 03:29:17;;;;;;;4.95;3.05;;;;;;;26.29;33.62;100258.31;9910519;29;20242;-80
2022/07/20 03:34:20;;;;;;;4.72;2.72;;;;;;;26.49;32.79;100256.69;9916257;29;20220;-80
2022/07/20 03:39:22;;;;;;;4.07;2.90;;;;;;;26.23;34.00;100257.09;9918246;30;20210;-80
2022/07/20 03:44:25;;;;;;;6.07;3.00;;;;;;;26.45;32.73;100268.19;9902338;30;20210;-80
2022/07/20 03:49:27;;;;;;;5.05;3.20;;;;;;;26.25;32.93;100257.50;9901944;30;20197;-80
2022/07/20 03:54:29;;;;;;;7.38;3.47;;;;;;;26.28;33.81;100265.28;9916838;30;20247;-81
2022/07/20 03:59:33;;;;;;;5.32;3.20;;;;;;;26.26;32.89;100265.69;9932723;29;20518;-81
2022/07/20 04:04:35;;;;;;;5.80;2.80;;;;;;;26.11;33.97;100270.63;9915111;30;20197;-80
2022/07/20 04:09:43;;;;;;;8.27;3.13;;;;;;;26.22;34.14;100269.78;9900439;30;20201;-80
2022/07/20 04:14:47;;;;;;;6.75;3.30;;;;;;;26.42;32.98;100271.03;9911899;30;20201;-80
2022/07/20 04:19:49;;;;;;;7.03;3.17;;;;;;;26.48;33.14;100261.59;9918420;29;20527;-80
2022/07/20 04:24:52;;;;;;;5.68;3.72;;;;;;;26.83;32.56;100260.69;9909349;29;20553;-80
2022/07/20 04:29:54;;;;;;;5.55;3.38;;;;;;;26.73;33.45;100260.75;9951497;29;20265;-80
2022/07/20 04:34:56;;;;;;;4.80;2.72;;;;;;;26.27;34.94;100280.84;9913207;29;20261;-80
2022/07/20 04:39:58;;;;;;;4.75;3.08;;;;;;;26.50;33.60;100305.03;9931938;29;20212;-80
2022/07/20 04:45:01;;;;;;;9.50;4.30;;;;;;;25.48;37.24;100347.81;9953309;29;20583;-80
2022/07/20 04:50:03;;;;;;;14.98;4.78;;;;;;;26.41;34.78;100326.75;9921235;29;20201;-80
2022/07/20 04:55:06;;;;;;;11.85;5.25;;;;;;;26.32;36.47;100326.31;9915695;30;20194;-80
2022/07/20 05:00:11;;;;;;;19.42;5.95;;;;;;;26.44;35.11;100361.16;9915501;30;20266;-80
2022/07/20 05:05:13;;;;;;;16.35;6.65;;;;;;;26.82;33.71;100362.34;9914103;30;20209;-80
2022/07/20 05:10:15;;;;;;;19.42;6.22;;;;;;;26.82;33.92;100356.63;9914238;29;20223;-80
2022/07/20 05:15:19;;;;;;;11.35;6.13;;;;;;;25.84;38.55;100363.91;9913807;29;20197;-79
2022/07/20 05:20:21;;;;;;;11.73;4.95;;;;;;;27.17;33.54;100352.03;9914261;30;20213;-79
2022/07/20 05:25:23;;;;;;;9.32;3.38;;;;;;;27.60;30.81;100351.91;9913798;30;20250;-80
2022/07/20 05:30:30;;;;;;;13.07;4.10;;;;;;;28.09;29.98;100348.75;9921999;29;20643;-80
2022/07/20 05:35:33;;;;;;;8.90;3.65;;;;;;;28.40;28.60;100349.75;9903107;30;20206;-79
2022/07/20 05:40:36;;;;;;;8.07;2.72;;;;;;;29.07;26.97;100350.38;9865261;29;20261;-79
2022/07/20 05:45:38;;;;;;;6.75;3.55;;;;;;;29.43;26.53;100362.31;9912600;29;20274;-80
2022/07/20 05:50:48;;;;;;;5.50;2.90;;;;;;;29.45;25.51;100372.16;9932988;29;20204;-80
2022/07/20 05:55:50;;;;;;;4.00;2.50;;;;;;;29.85;25.80;100386.88;9922900;29;20210;-80
2022/07/20 06:00:52;;;;;;;5.53;3.00;;;;;;;30.20;25.16;100391.31;9926623;29;20260;-80
2022/07/20 06:05:54;;;;;;;3.95;2.88;;;;;;;30.35;25.61;100387.81;9928898;29;20599;-80
2022/07/20 06:10:57;;;;;;;5.70;2.95;;;;;;;30.11;24.97;100403.38;9916410;29;20254;-80
2022/07/20 06:15:59;;;;;;;4.47;2.78;;;;;;;30.71;24.97;100390.09;9937009;29;20548;-80
2022/07/20 06:21:01;;;;;;;5.63;2.97;;;;;;;30.59;24.58;100396.47;9941379;29;20229;-80
2022/07/20 06:26:03;;;;;;;5.07;3.10;;;;;;;30.71;24.93;100404.53;9940301;29;20600;-81
2022/07/20 06:31:06;;;;;;;7.40;2.83;;;;;;;30.40;24.70;100420.28;9926324;29;20229;-80
2022/07/20 06:36:09;;;;;;;3.80;2.78;;;;;;;29.95;25.82;100440.72;9915522;29;20262;-80
2022/07/20 06:41:11;;;;;;;7.95;2.85;;;;;;;29.76;26.73;100444.25;9918205;29;20225;-81
2022/07/20 06:46:13;;;;;;;7.85;3.28;;;;;;;29.78;27.41;100445.44;9918004;29;20204;-81
2022/07/20 06:51:16;;;;;;;4.75;3.10;;;;;;;29.92;27.09;100453.09;9917379;29;20232;-81
2022/07/20 06:56:18;;;;;;;8.30;3.15;;;;;;;30.17;26.77;100444.09;9919622;29;20269;-81
2022/07/20 07:01:21;;;;;;;9.77;3.60;;;;;;;29.96;27.34;100460.47;9935983;29;20497;-80
2022/07/20 07:06:27;;;;;;;6.60;3.97;;;;;;;29.78;27.80;100476.34;9921139;29;20196;-80
2022/07/20 07:11:29;;;;;;;8.18;4.50;;;;;;;29.92;27.42;100490.59;9933062;29;20197;-80
2022/07/20 07:16:31;;;;;;;11.82;5.05;;;;;;;30.11;27.77;100495.69;9925320;29;20531;-80
2022/07/20 07:21:34;;;;;;;10.10;6.28;;;;;;;29.78;29.48;100496.53;9913260;29;20261;-81
2022/07/20 07:26:36;;;;;;;11.55;9.07;;;;;;;29.82;30.33;100508.84;9945488;29;20201;-80
2022/07/20 07:31:38;;;;;;;16.10;10.30;;;;;;;29.47;31.32;100519.47;9909883;29;20216;-80
2022/07/20 07:36:41;;;;;;;20.58;12.15;;;;;;;29.46;31.92;100531.44;9883005;30;20205;-80
2022/07/20 07:41:43;;;;;;;21.65;12.68;;;;;;;29.91;33.40;100537.97;9915109;29;20278;-81
2022/07/20 07:46:47;;;;;;;18.58;12.77;;;;;;;29.70;32.37;100561.25;9924459;29;20708;-81
2022/07/20 07:51:49;;;;;;;19.77;13.50;;;;;;;30.32;32.82;100558.91;9914884;29;20202;-81
2022/07/20 07:56:51;;;;;;;22.67;12.95;;;;;;;30.12;33.06;100580.13;9910029;29;20304;-81
2022/07/20 08:01:53;;;;;;;22.42;14.30;;;;;;;30.12;33.54;100568.59;9892834;30;20535;-81
2022/07/20 08:06:56;;;;;;;19.85;13.85;;;;;;;30.22;33.36;100582.91;9892004;29;20241;-81
2022/07/20 08:11:58;;;;;;;22.98;15.00;;;;;;;30.07;34.17;100593.00;9919149;29;20514;-81
2022/07/20 08:17:00;;;;;;;21.27;14.27;;;;;;;29.98;33.92;100595.53;9939013;29;20254;-81
2022/07/20 08:22:03;;;;;;;21.95;15.50;;;;;;;30.76;32.95;100611.91;9916817;29;20285;-80
2022/07/20 08:27:06;;;;;;;24.48;15.15;;;;;;;31.03;33.18;100630.09;9922930;29;20205;-81
2022/07/20 08:32:08;;;;;;;25.48;15.05;;;;;;;30.36;33.79;100636.78;9908083;29;20233;-79
2022/07/20 08:37:11;;;;;;;22.90;15.80;;;;;;;31.00;33.59;100648.31;9929071;29;20236;-81
2022/07/20 08:42:14;;;;;;;20.15;15.95;;;;;;;30.89;32.22;100647.63;9928806;29;20228;-80
2022/07/20 08:47:16;;;;;;;21.42;16.35;;;;;;;30.89;31.96;100646.81;9922117;29;20216;-80
2022/07/20 08:52:19;;;;;;;21.17;16.58;;;;;;;31.40;31.02;100645.66;9927146;29;20230;-81
2022/07/20 08:57:21;;;;;;;25.10;16.90;;;;;;;31.60;31.32;100642.84;9908012;29;20217;-81
2022/07/20 09:02:24;;;;;;;26.10;17.05;;;;;;;31.06;31.63;100666.78;9923982;29;20527;-80
2022/07/20 09:07:43;;;;;;;26.88;17.77;;;;;;;30.98;31.07;100647.09;9920544;29;20591;-80
2022/07/20 09:12:57;;;;;;;25.35;17.98;;;;;;;31.22;30.84;100645.09;9930913;29;20209;-81
2022/07/20 09:18:09;;;;;;;23.67;17.23;;;;;;;31.29;31.54;100633.44;9896929;30;20562;-81
2022/07/20 09:23:17;;;;;;;18.67;16.42;;;;;;;31.99;30.50;100624.78;9883080;30;20627;-80
2022/07/20 09:28:20;;;;;;;22.98;17.38;;;;;;;32.15;30.89;100627.78;9912535;29;20214;-80
2022/07/20 09:33:27;;;;;;;21.30;18.27;;;;;;;31.34;30.63;100619.31;9914142;29;20257;-81
2022/07/20 09:38:37;;;;;;;25.08;17.65;;;;;;;31.73;30.67;100601.28;9912500;29;20747;-81
2022/07/20 09:43:40;;;;;;;22.38;17.50;;;;;;;32.15;29.82;100609.63;9917190;29;20224;-80
2022/07/20 09:48:47;;;;;;;19.83;17.73;;;;;;;32.54;29.41;100612.53;9896923;30;20201;-80
2022/07/20 09:53:53;;;;;;;21.25;17.48;;;;;;;31.57;29.90;100611.91;9911617;30;20189;-80
2022/07/20 09:58:56;;;;;;;27.08;16.88;;;;;;;32.34;29.71;100595.16;9880885;30;20520;-81
2022/07/20 10:04:02;;;;;;;21.15;15.82;;;;;;;32.51;28.91;100606.81;9910832;29;20270;-81
2022/07/20 10:09:06;;;;;;;22.90;14.27;;;;;;;31.86;30.49;100607.28;9912290;29;20236;-80
2022/07/20 10:14:09;;;;;;;16.42;14.52;;;;;;;30.53;31.27;100606.03;9935351;29;20200;-80
2022/07/20 10:19:11;;;;;;;19.95;14.90;;;;;;;30.85;31.07;100614.28;9874623;29;20727;-80
2022/07/20 10:24:30;;;;;;;19.80;15.48;;;;;;;31.73;30.61;100618.63;9889179;29;20584;-80
2022/07/20 10:29:35;;;;;;;20.88;14.50;;;;;;;30.98;30.73;100636.38;9900656;29;20280;-81
2022/07/20 10:34:43;;;;;;;22.88;14.75;;;;;;;31.67;30.92;100643.50;9925996;29;20236;-81
2022/07/20 10:39:46;;;;;;;22.67;14.52;;;;;;;32.29;28.60;100639.13;9903463;29;20662;-80
2022/07/20 10:44:49;;;;;;;22.15;14.05;;;;;;;32.95;29.91;100641.03;9902237;29;20209;-81
2022/07/20 10:50:02;;;;;;;17.65;13.73;;;;;;;32.32;29.77;100661.34;9884607;29;20197;-80
2022/07/20 10:55:05;;;;;;;16.55;13.38;;;;;;;31.87;30.04;100651.47;9897767;29;20202;-80
2022/07/20 11:00:11;;;;;;;19.58;15.68;;;;;;;32.07;29.97;100661.00;9878340;30;20220;-80
2022/07/20 11:05:20;;;;;;;16.25;12.80;;;;;;;32.29;29.23;100653.59;9874068;29;20202;-81
2022/07/20 11:10:26;;;;;;;14.32;11.98;;;;;;;31.62;29.79;100651.88;9872201;29;20278;-80
2022/07/20 11:15:37;;;;;;;17.92;12.77;;;;;;;32.24;29.04;100636.69;9914974;29;20240;-80
2022/07/20 11:20:57;;;;;;;16.63;12.50;;;;;;;32.41;28.60;100629.75;9893932;29;20635;-80
2022/07/20 11:26:00;;;;;;;16.50;13.10;;;;;;;32.09;29.28;100646.91;9914752;29;20579;-80
2022/07/20 11:31:05;;;;;;;16.15;12.52;;;;;;;32.68;28.88;100632.50;9922444;29;20290;-80
2022/07/20 11:36:13;;;;;;;13.77;12.27;;;;;;;33.12;28.21;100628.19;9891938;30;20258;-80
2022/07/20 11:41:21;;;;;;;17.83;12.32;;;;;;;32.45;30.40;100639.16;9897183;29;20763;-80
2022/07/20 11:46:25;;;;;;;19.50;12.55;;;;;;;32.49;28.41;100638.28;9898887;29;20233;-80
2022/07/20 11:51:29;;;;;;;16.20;11.82;;;;;;;32.86;29.58;100634.19;9883725;29;20719;-79
2022/07/20 11:56:34;;;;;;;17.58;11.52;;;;;;;33.38;27.80;100622.59;9906659;30;20267;-80
2022/07/20 12:01:37;;;;;;;13.60;10.80;;;;;;;34.69;27.17;100618.19;9902879;29;20248;-80
2022/07/20 12:06:41;;;;;;;15.57;11.00;;;;;;;33.54;27.69;100608.13;9923566;29;20290;-80
2022/07/20 12:12:04;;;;;;;14.60;11.27;;;;;;;32.91;28.30;100611.31;9920451;29;20235;-80
2022/07/20 12:17:21;;;;;;;13.23;10.30;;;;;;;33.26;28.58;100603.03;9894073;29;20217;-80
2022/07/20 12:22:32;;;;;;;20.98;10.93;;;;;;;34.38;27.47;100617.88;9898460;29;20325;-80
2022/07/20 12:27:36;;;;;;;15.90;11.02;;;;;;;34.22;27.48;100617.94;9909491;29;20310;-80
2022/07/20 12:32:38;;;;;;;15.90;10.73;;;;;;;35.03;26.24;100611.75;9905078;29;20269;-79
2022/07/20 12:37:55;;;;;;;14.75;10.30;;;;;;;34.73;26.37;100610.19;9899635;29;20380;-80
2022/07/20 12:42:58;;;;;;;12.35;9.73;;;;;;;34.50;26.85;100600.50;9896584;29;20293;-80
2022/07/20 12:48:00;;;;;;;10.95;9.73;;;;;;;34.36;27.43;100600.91;9876202;29;20295;-80
2022/07/20 12:53:10;;;;;;;15.93;9.80;;;;;;;34.42;26.91;100593.25;9888021;29;20379;-80
2022/07/20 12:58:12;;;;;;;14.68;10.05;;;;;;;35.05;26.73;100592.53;9905066;29;20240;-80
2022/07/20 13:03:14;;;;;;;12.98;9.50;;;;;;;33.78;27.33;100600.06;9904674;29;20647;-80
2022/07/20 13:08:17;;;;;;;13.80;8.95;;;;;;;34.09;27.08;100594.63;9910305;29;20680;-80
2022/07/20 13:13:27;;;;;;;12.45;8.55;;;;;;;34.92;26.21;100580.09;9903797;29;20672;-80
2022/07/20 13:18:30;;;;;;;10.48;8.23;;;;;;;35.04;25.55;100593.81;9886989;30;20249;-81
2022/07/20 13:23:32;;;;;;;12.40;8.73;;;;;;;34.72;26.64;100589.03;9896288;29;20639;-80
2022/07/20 13:28:35;;;;;;;9.32;8.38;;;;;;;34.31;26.80;100586.94;9904181;29;20233;-81
2022/07/20 13:33:37;;;;;;;14.50;10.00;;;;;;;34.01;27.38;100594.00;9903609;29;20264;-80
2022/07/20 13:38:40;;;;;;;13.65;9.38;;;;;;;35.62;27.20;100593.59;9909161;29;20255;-80
2022/07/20 13:43:42;;;;;;;11.05;8.80;;;;;;;35.27;27.73;100604.31;9900366;29;20268;-80
2022/07/20 13:48:45;;;;;;;12.65;8.57;;;;;;;35.41;26.53;100594.31;9912552;29;20240;-80
2022/07/20 13:53:48;;;;;;;11.43;8.38;;;;;;;35.09;27.12;100593.28;9883485;29;20296;-80
2022/07/20 13:58:50;;;;;;;14.35;8.75;;;;;;;35.36;25.30;100574.53;9920488;29;20259;-80
2022/07/20 14:03:53;;;;;;;13.77;8.65;;;;;;;34.83;25.92;100588.72;9909371;29;20598;-80
2022/07/20 14:08:55;;;;;;;12.98;8.02;;;;;;;35.60;25.53;100590.31;9867279;29;20237;-81
2022/07/20 14:13:58;;;;;;;10.60;8.65;;;;;;;34.42;26.78;100592.44;9905338;29;20230;-79
2022/07/20 14:19:00;;;;;;;10.93;8.15;;;;;;;35.12;26.91;100588.63;9893570;29;20300;-80
2022/07/20 14:24:03;;;;;;;10.38;7.82;;;;;;;33.66;28.06;100604.47;9913701;29;20319;-80
2022/07/20 14:29:05;;;;;;;10.55;7.72;;;;;;;35.32;26.33;100597.91;9897404;29;20257;-80
2022/07/20 14:34:08;;;;;;;13.05;7.80;;;;;;;34.51;26.28;100586.78;9910225;29;20264;-80
2022/07/20 14:39:10;;;;;;;13.15;7.95;;;;;;;34.82;25.97;100570.44;9928578;29;20228;-80
2022/07/20 14:44:13;;;;;;;12.40;7.72;;;;;;;35.47;25.99;100572.88;9916331;29;20289;-80
2022/07/20 14:49:15;;;;;;;8.73;7.18;;;;;;;35.17;25.90;100567.72;9916983;29;20240;-80
2022/07/20 14:54:18;;;;;;;12.85;8.10;;;;;;;34.43;25.50;100565.84;9913923;29;20278;-80
2022/07/20 14:59:20;;;;;;;10.60;8.10;;;;;;;34.36;26.37;100566.06;9890986;30;20264;-80
2022/07/20 15:04:23;;;;;;;12.43;7.93;;;;;;;33.96;27.52;100582.16;9906119;29;20382;-80
2022/07/20 15:09:25;;;;;;;10.18;7.40;;;;;;;34.44;26.92;100578.28;9893698;29;20984;-80
2022/07/20 15:14:28;;;;;;;8.52;7.50;;;;;;;34.52;26.32;100585.50;9910379;29;20245;-80
2022/07/20 15:19:30;;;;;;;8.65;7.30;;;;;;;34.09;27.23;100583.03;9884373;29;20248;-80
2022/07/20 15:24:32;;;;;;;7.85;6.95;;;;;;;34.84;26.20;100556.28;9896246;29;20309;-80
2022/07/20 15:29:35;;;;;;;9.80;6.68;;;;;;;34.13;27.10;100535.19;9909384;29;21061;-80
2022/07/20 15:34:37;;;;;;;8.88;6.95;;;;;;;33.71;27.58;100525.66;9890792;29;20627;-79
2022/07/20 15:39:45;;;;;;;10.15;6.13;;;;;;;33.10;27.99;100535.06;9939200;29;20253;-79
2022/07/20 15:44:47;;;;;;;8.55;5.72;;;;;;;33.87;27.14;100550.09;9900535;29;20658;-80
2022/07/20 15:49:50;;;;;;;15.90;7.32;;;;;;;33.41;28.29;100555.03;9897852;29;20233;-80
2022/07/20 15:54:52;;;;;;;13.75;6.88;;;;;;;32.67;29.79;100577.91;9905745;29;20290;-79
2022/07/20 15:59:56;;;;;;;12.30;6.88;;;;;;;32.44;30.42;100597.00;9927807;29;20301;-80
2022/07/20 16:05:00;;;;;;;12.07;6.88;;;;;;;32.54;29.87;100608.81;9908949;29;20264;-80
2022/07/20 16:10:03;;;;;;;10.77;7.15;;;;;;;32.20;30.92;100583.84;9937674;29;20265;-79
2022/07/20 16:15:06;;;;;;;11.82;6.65;;;;;;;32.12;30.44;100599.72;9910527;29;20212;-79
2022/07/20 16:20:10;;;;;;;9.77;7.28;;;;;;;32.30;30.58;100597.34;9945269;29;20217;-80
2022/07/20 16:25:13;;;;;;;13.63;6.35;;;;;;;32.70;30.10;100601.00;9901743;29;20270;-80
2022/07/20 16:30:24;;;;;;;14.98;6.43;;;;;;;31.86;32.84;100586.22;9911945;29;20326;-80
2022/07/20 16:35:27;;;;;;;12.02;6.10;;;;;;;31.85;33.85;100578.78;9901179;30;20193;-81
2022/07/20 16:40:29;;;;;;;12.68;6.07;;;;;;;31.27;36.02;100592.63;9913202;29;20205;-80
2022/07/20 16:45:32;;;;;;;11.80;6.57;;;;;;;30.68;37.20;100575.72;9934019;29;20249;-80
2022/07/20 16:50:36;;;;;;;12.35;7.75;;;;;;;30.90;37.82;100565.50;9903252;29;20242;-80
2022/07/20 16:55:42;;;;;;;8.15;6.20;;;;;;;31.00;37.61;100567.44;9944298;29;20255;-81
2022/07/20 17:00:44;;;;;;;11.38;7.28;;;;;;;31.34;37.07;100560.69;9923982;29;20208;-80
2022/07/20 17:05:50;;;;;;;10.85;7.13;;;;;;;31.48;39.67;100569.13;9934780;29;20221;-80
2022/07/20 17:10:55;;;;;;;13.05;7.93;;;;;;;31.12;39.38;100568.06;9913680;30;20193;-80
2022/07/20 17:15:57;;;;;;;13.13;7.93;;;;;;;31.38;39.47;100573.03;9896935;29;20267;-81
2022/07/20 17:21:00;;;;;;;11.75;7.13;;;;;;;30.13;43.00;100561.59;9920272;29;20557;-80
2022/07/20 17:26:03;;;;;;;11.68;8.13;;;;;;;30.28;45.62;100511.97;9935381;29;20617;-80
2022/07/20 17:31:05;;;;;;;11.65;8.18;;;;;;;29.73;46.50;100496.97;9940272;29;20232;-79
2022/07/20 17:36:07;;;;;;;13.05;9.07;;;;;;;29.54;47.69;100481.94;9911417;29;20209;-79
2022/07/20 17:41:10;;;;;;;14.75;9.43;;;;;;;29.42;50.15;100508.41;9917236;29;20277;-79
2022/07/20 17:46:12;;;;;;;15.15;9.38;;;;;;;29.92;50.86;100516.53;9912805;29;20229;-79
2022/07/20 17:51:14;;;;;;;14.73;10.15;;;;;;;30.46;48.74;100516.69;9912974;29;20337;-79
2022/07/20 17:56:17;;;;;;;12.77;9.90;;;;;;;30.34;47.99;100541.97;9904670;29;20227;-80
2022/07/20 18:01:19;;;;;;;14.05;10.32;;;;;;;30.49;47.44;100554.16;9902243;29;20210;-79
2022/07/20 18:06:22;;;;;;;15.00;9.90;;;;;;;30.59;47.08;100543.69;9927121;29;20204;-79
2022/07/20 18:11:25;;;;;;;15.10;10.20;;;;;;;30.48;47.88;100560.34;9920774;29;20201;-78
2022/07/20 18:16:28;;;;;;;12.98;9.85;;;;;;;30.70;46.57;100541.47;9935926;29;20201;-80
2022/07/20 18:21:30;;;;;;;16.33;9.25;;;;;;;30.60;46.34;100528.00;9904950;29;20209;-80
2022/07/20 18:26:33;;;;;;;15.90;9.25;;;;;;;30.31;46.95;100534.19;9860621;29;20369;-80
2022/07/20 18:31:35;;;;;;;10.07;8.15;;;;;;;30.79;46.80;100530.22;9904552;29;20249;-80
2022/07/20 18:36:39;;;;;;;14.32;11.10;;;;;;;30.67;46.11;100516.34;9917737;29;20204;-80
2022/07/20 18:41:41;;;;;;;14.68;10.15;;;;;;;30.45;47.67;100523.69;9925298;29;20209;-80
2022/07/20 18:46:44;;;;;;;15.75;10.60;;;;;;;30.69;47.24;100537.75;9906595;29;20660;-80
2022/07/20 18:51:46;;;;;;;16.20;10.40;;;;;;;30.09;48.53;100532.81;9877723;30;20205;-80
2022/07/20 18:56:49;;;;;;;16.80;13.50;;;;;;;30.61;47.86;100552.75;9920685;29;20265;-80
2022/07/20 19:02:11;;;;;;;14.70;10.70;;;;;;;30.72;46.38;100553.41;9934545;29;20703;-79
2022/07/20 19:07:13;;;;;;;15.43;10.25;;;;;;;30.26;47.47;100559.81;9895768;29;20209;-80
2022/07/20 19:12:16;;;;;;;12.98;9.95;;;;;;;30.46;47.83;100585.94;9929319;29;20204;-79
2022/07/20 19:17:18;;;;;;;15.48;10.63;;;;;;;30.21;49.21;100575.50;9948045;29;20545;-81
2022/07/20 19:22:20;;;;;;;11.82;9.48;;;;;;;30.17;48.12;100545.88;9935003;29;20560;-81
2022/07/20 19:27:23;;;;;;;14.05;9.75;;;;;;;29.50;50.92;100501.31;9932077;29;20250;-80
2022/07/20 19:32:25;;;;;;;11.32;8.60;;;;;;;29.86;49.17;100530.59;9918372;29;20678;-81
2022/07/20 19:37:28;;;;;;;10.60;9.23;;;;;;;29.65;49.43;100551.81;9905440;29;20615;-79
2022/07/20 19:42:30;;;;;;;16.70;10.13;;;;;;;28.89;52.66;100570.16;9908195;29;20329;-81
2022/07/20 19:47:32;;;;;;;13.63;10.07;;;;;;;29.09;52.50;100586.84;9890752;29;20240;-81
2022/07/20 19:52:35;;;;;;;12.00;10.55;;;;;;;29.27;50.94;100619.25;9913609;29;20225;-81
2022/07/20 19:57:37;;;;;;;12.10;10.77;;;;;;;29.66;50.87;100625.50;9908409;29;20236;-82
2022/07/20 20:02:39;;;;;;;17.00;11.50;;;;;;;29.35;52.64;100615.06;9898099;29;20306;-80
2022/07/20 20:07:42;;;;;;;14.15;11.02;;;;;;;28.92;53.53;100614.56;9883524;30;20245;-81
2022/07/20 20:12:44;;;;;;;14.45;12.65;;;;;;;28.29;57.00;100616.47;9911372;29;20249;-80
2022/07/20 20:17:47;;;;;;;17.80;12.63;;;;;;;28.57;57.61;100584.69;9920011;29;20647;-80
2022/07/20 20:22:49;;;;;;;17.15;13.32;;;;;;;28.78;57.09;100591.63;9914366;29;20326;-80
2022/07/20 20:27:52;;;;;;;17.67;13.50;;;;;;;29.47;53.34;100643.38;9884794;29;20205;-80
2022/07/20 20:33:14;;;;;;;15.75;13.23;;;;;;;30.04;51.39;100674.59;9908564;29;20393;-81
2022/07/20 20:38:17;;;;;;;13.90;11.00;;;;;;;29.25;53.27;100696.63;9914192;29;20668;-80
2022/07/20 20:43:19;;;;;;;16.38;11.00;;;;;;;29.90;53.25;100701.50;9924881;29;20310;-80
2022/07/20 20:48:22;;;;;;;14.25;12.55;;;;;;;29.32;56.43;100695.78;9909714;29;20229;-81
2022/07/20 20:53:24;;;;;;;16.02;11.85;;;;;;;29.05;56.56;100676.16;9887918;29;20233;-80
2022/07/20 20:58:26;;;;;;;14.38;11.50;;;;;;;28.77;55.45;100676.31;9926821;29;20358;-79
2022/07/20 21:03:29;;;;;;;11.93;9.80;;;;;;;28.59;55.03;100667.72;9926261;29;20329;-80
2022/07/20 21:08:31;;;;;;;11.73;9.70;;;;;;;28.02;56.16;100667.88;9893691;29;20301;-78
2022/07/20 21:13:34;;;;;;;15.98;10.23;;;;;;;27.98;57.73;100692.13;9899026;29;20262;-78
2022/07/20 21:18:36;;;;;;;17.38;11.68;;;;;;;27.89;59.01;100695.44;9899835;29;20581;-78
2022/07/20 21:23:39;;;;;;;14.57;12.10;;;;;;;28.15;60.31;100722.94;9890534;29;20257;-78
2022/07/20 21:28:41;;;;;;;14.23;11.52;;;;;;;27.71;60.46;100727.03;9895219;29;20278;-78
2022/07/20 21:33:44;;;;;;;15.07;12.27;;;;;;;27.53;62.29;100737.63;9903833;29;20256;-79
2022/07/20 21:38:46;;;;;;;18.67;12.45;;;;;;;27.47;62.09;100743.00;9896246;29;20262;-79
2022/07/20 21:43:48;;;;;;;14.27;12.32;;;;;;;27.41;61.63;100726.53;9906633;29;20650;-79
2022/07/20 21:48:50;;;;;;;16.58;12.40;;;;;;;27.38;62.33;100731.06;9913272;29;20270;-78
2022/07/20 21:53:53;;;;;;;17.00;12.23;;;;;;;27.11;63.24;100735.53;9911706;29;20745;-79
2022/07/20 21:58:56;;;;;;;13.63;12.20;;;;;;;27.38;61.83;100756.91;9915924;29;20509;-79
2022/07/20 22:03:58;;;;;;;13.77;12.38;;;;;;;27.40;61.52;100788.91;9915964;29;20257;-80
2022/07/20 22:09:00;;;;;;;17.13;12.90;;;;;;;27.01;62.09;100794.53;9902587;30;20302;-79
2022/07/20 22:14:03;;;;;;;15.85;13.32;;;;;;;27.00;62.83;100789.19;9899005;30;20259;-78
2022/07/20 22:19:05;;;;;;;20.48;13.70;;;;;;;26.79;64.62;100784.97;9910066;29;20680;-79
2022/07/20 22:24:08;;;;;;;17.35;13.95;;;;;;;27.14;65.59;100797.84;9914203;29;20565;-78
2022/07/20 22:29:10;;;;;;;16.33;13.75;;;;;;;26.20;66.91;100771.06;9936372;29;20317;-82
2022/07/20 22:34:13;;;;;;;15.20;12.75;;;;;;;25.86;66.36;100805.56;9893041;30;20257;-82
2022/07/20 22:39:16;;;;;;;13.40;10.80;;;;;;;25.72;66.84;100819.72;9907668;29;20248;-81
2022/07/20 22:44:18;;;;;;;8.20;6.22;;;;;;;23.77;66.10;100743.41;9911203;29;20286;-82
2022/07/20 22:49:20;;;;;;;6.43;5.78;;;;;;;25.08;62.49;100767.44;9905056;29;20236;-81
2022/07/20 22:54:23;;;;;;;6.20;5.60;;;;;;;24.64;62.74;100773.84;9897307;30;20248;-80
2022/07/20 22:59:25;;;;;;;6.05;4.70;;;;;;;24.27;62.37;100787.09;9902576;29;20568;-81
2022/07/20 23:04:29;;;;;;;5.93;5.18;;;;;;;24.95;61.17;100792.63;9909715;29;20252;-82
2022/07/20 23:09:32;;;;;;;7.13;5.28;;;;;;;24.89;62.47;100770.47;9907579;29;20676;-83
2022/07/20 23:14:40;;;;;;;6.43;5.68;;;;;;;24.98;63.72;100768.13;9901213;29;20289;-82